createdAt,value
2018-10-19T00:00:00.791Z,18.30
2018-10-19T00:02:28.355Z,18.75
2018-10-19T00:04:55.924Z,16.30
2018-10-19T00:07:23.417Z,17.80
2018-10-19T00:09:50.935Z,17.48
2018-10-19T00:12:18.438Z,18.20
2018-10-19T00:14:45.958Z,18.07
2018-10-19T00:17:13.556Z,17.23
2018-10-19T00:19:41.035Z,18.07
2018-10-19T00:22:08.551Z,16.42
2018-10-19T00:24:36.061Z,18.00
2018-10-19T00:27:03.653Z,16.93
2018-10-19T00:29:31.249Z,14.65
2018-10-19T00:31:59.282Z,15.55
2018-10-19T00:34:26.808Z,15.70
2018-10-19T00:36:54.365Z,16.50
2018-10-19T00:39:21.906Z,14.65
2018-10-19T00:41:49.398Z,15.28
2018-10-19T00:44:16.911Z,14.65
2018-10-19T00:46:44.453Z,16.87
2018-10-19T00:49:13.433Z,13.60
2018-10-19T00:51:40.971Z,14.90
2018-10-19T00:54:09.052Z,14.25
2018-10-19T00:56:36.608Z,13.15
2018-10-19T00:59:04.298Z,15.08
2018-10-19T01:01:31.973Z,13.53
2018-10-19T01:03:59.491Z,14.13
2018-10-19T01:06:27.095Z,14.60
2018-10-19T01:08:54.748Z,14.38
2018-10-19T01:11:22.251Z,13.43
2018-10-19T01:13:49.838Z,14.03
2018-10-19T01:16:17.421Z,13.55
2018-10-19T01:18:45.850Z,13.43
2018-10-19T01:21:13.433Z,13.43
2018-10-19T01:23:40.911Z,13.00
2018-10-19T01:26:08.441Z,13.60
2018-10-19T01:28:36.022Z,13.72
2018-10-19T01:31:03.565Z,12.05
2018-10-19T01:33:31.229Z,12.47
2018-10-19T01:35:58.797Z,11.90
2018-10-19T01:38:27.135Z,13.68
2018-10-19T01:40:54.651Z,11.08
2018-10-19T01:43:22.221Z,13.75
2018-10-19T01:45:55.635Z,11.70
2018-10-19T01:48:24.957Z,12.80
2018-10-19T01:50:52.542Z,13.13
2018-10-19T01:53:20.143Z,11.90
2018-10-19T01:55:47.706Z,11.22
2018-10-19T01:58:15.550Z,9.60
2018-10-19T02:00:43.943Z,10.88
2018-10-19T02:03:11.535Z,9.65
2018-10-19T02:05:39.548Z,9.83
2018-10-19T02:08:08.130Z,9.68
2018-10-19T02:10:35.691Z,9.15
2018-10-19T02:13:03.570Z,8.63
2018-10-19T02:15:31.491Z,9.23
2018-10-19T02:17:58.976Z,9.38
2018-10-19T02:20:26.512Z,9.78
2018-10-19T02:22:54.736Z,10.35
2018-10-19T02:25:22.271Z,9.70
2018-10-19T02:27:49.797Z,7.90
2018-10-19T02:30:17.454Z,10.65
2018-10-19T02:32:44.964Z,8.10
2018-10-19T02:35:12.589Z,7.97
2018-10-19T02:37:40.163Z,8.90
2018-10-19T02:40:08.305Z,10.00
2018-10-19T02:42:36.197Z,9.08
2018-10-19T02:45:04.010Z,8.55
2018-10-19T02:47:31.539Z,9.08
2018-10-19T02:49:59.090Z,9.80
2018-10-19T02:52:26.555Z,8.68
2018-10-19T02:54:54.053Z,10.03
2018-10-19T02:57:21.602Z,9.15
2018-10-19T02:59:49.133Z,9.13
2018-10-19T03:02:16.656Z,9.28
2018-10-19T03:04:44.184Z,10.60
2018-10-19T03:07:11.757Z,10.05
2018-10-19T03:09:39.357Z,10.08
2018-10-19T03:12:07.238Z,11.05
2018-10-19T03:14:34.740Z,10.75
2018-10-19T03:17:03.036Z,11.53
2018-10-19T03:19:30.530Z,12.75
2018-10-19T03:21:58.065Z,10.72
2018-10-19T03:24:25.643Z,11.73
2018-10-19T03:26:54.222Z,10.48
2018-10-19T03:29:21.804Z,11.43
2018-10-19T03:31:49.211Z,11.57
2018-10-19T03:34:16.699Z,7.05
2018-10-19T03:36:44.235Z,6.35
2018-10-19T03:39:11.864Z,4.95
2018-10-19T03:41:39.381Z,4.40
2018-10-19T03:44:06.928Z,4.55
2018-10-19T03:46:34.500Z,3.22
2018-10-19T03:49:02.051Z,3.90
2018-10-19T03:51:29.616Z,3.95
2018-10-19T03:53:57.128Z,4.35
2018-10-19T03:56:24.681Z,4.20
2018-10-19T03:58:52.270Z,3.80
2018-10-19T04:01:19.849Z,4.17
2018-10-19T04:03:47.371Z,4.00
2018-10-19T04:06:14.906Z,3.58
2018-10-19T04:08:42.460Z,3.55
2018-10-19T04:11:10.055Z,3.70
2018-10-19T04:13:38.350Z,3.77
2018-10-19T04:16:05.965Z,3.72
2018-10-19T04:18:33.761Z,4.15
2018-10-19T04:21:01.926Z,4.75
2018-10-19T04:23:29.488Z,4.35
2018-10-19T04:25:57.038Z,3.95
2018-10-19T04:28:24.692Z,3.60
2018-10-19T04:30:52.253Z,4.62
2018-10-19T04:33:19.796Z,4.20
2018-10-19T04:35:47.302Z,5.12
2018-10-19T04:38:14.843Z,4.10
2018-10-19T04:40:42.398Z,4.22
2018-10-19T04:43:10.515Z,4.92
2018-10-19T04:45:38.041Z,4.45
2018-10-19T04:48:06.574Z,5.85
2018-10-19T04:50:34.826Z,5.10
2018-10-19T04:53:02.423Z,5.50
2018-10-19T04:55:29.890Z,3.98
2018-10-19T04:57:57.430Z,4.17
2018-10-19T05:00:25.026Z,5.12
2018-10-19T05:02:52.599Z,4.35
2018-10-19T05:05:20.568Z,4.75
2018-10-19T05:07:48.023Z,3.92
2018-10-19T05:10:16.213Z,5.12
2018-10-19T05:12:44.679Z,4.03
2018-10-19T05:15:12.242Z,4.12
2018-10-19T05:17:39.747Z,4.25
2018-10-19T05:20:10.088Z,3.95
2018-10-19T05:22:37.778Z,3.80
2018-10-19T05:25:07.374Z,4.30
2018-10-19T05:27:34.975Z,3.37
2018-10-19T05:30:02.589Z,4.08
2018-10-19T05:32:30.147Z,4.20
2018-10-19T05:34:57.680Z,4.22
2018-10-19T05:37:25.234Z,4.75
2018-10-19T05:39:52.779Z,3.40
2018-10-19T05:42:23.053Z,3.95
2018-10-19T05:44:50.827Z,2.70
2018-10-19T05:47:18.485Z,3.00
2018-10-19T05:49:46.066Z,8.68
2018-10-19T05:52:13.784Z,4.80
2018-10-19T05:54:41.270Z,3.58
2018-10-19T05:57:08.800Z,3.72
2018-10-19T05:59:36.328Z,4.10
2018-10-19T06:02:03.966Z,3.33
2018-10-19T06:04:31.747Z,4.30
2018-10-19T06:06:59.384Z,5.20
2018-10-19T06:09:26.939Z,4.42
2018-10-19T06:11:54.553Z,3.67
2018-10-19T06:14:22.084Z,4.20
2018-10-19T06:16:49.736Z,3.50
2018-10-19T06:19:18.224Z,5.28
2018-10-19T06:21:45.776Z,8.43
2018-10-19T06:24:13.329Z,6.60
2018-10-19T06:26:40.983Z,6.92
2018-10-19T06:29:09.799Z,6.75
2018-10-19T06:31:37.320Z,6.17
2018-10-19T06:34:04.966Z,7.53
2018-10-19T06:36:32.517Z,7.70
2018-10-19T06:39:00.027Z,8.70
2018-10-19T06:41:27.632Z,9.15
2018-10-19T06:43:55.661Z,6.30
2018-10-19T06:46:23.524Z,6.20
2018-10-19T06:48:53.351Z,6.50
2018-10-19T06:51:21.572Z,6.45
2018-10-19T06:53:49.079Z,5.67
2018-10-19T06:56:16.729Z,4.25
2018-10-19T06:58:44.141Z,5.05
2018-10-19T07:01:11.694Z,4.87
2018-10-19T07:03:39.219Z,4.62
2018-10-19T07:06:06.798Z,4.42
2018-10-19T07:08:34.897Z,4.97
2018-10-19T07:11:02.519Z,5.67
2018-10-19T07:13:30.026Z,5.45
2018-10-19T07:15:57.655Z,5.33
2018-10-19T07:18:25.153Z,6.03
2018-10-19T07:20:52.682Z,6.10
2018-10-19T07:23:20.241Z,5.30
2018-10-19T07:25:47.921Z,5.75
2018-10-19T07:28:15.489Z,5.70
2018-10-19T07:30:43.078Z,5.37
2018-10-19T07:33:10.587Z,6.58
2018-10-19T07:35:38.134Z,5.75
2018-10-19T07:38:05.968Z,4.50
2018-10-19T07:40:33.450Z,4.92
2018-10-19T07:43:01.018Z,4.50
2018-10-19T07:45:28.562Z,3.45
2018-10-19T07:47:56.304Z,4.35
2018-10-19T07:50:23.728Z,3.72
2018-10-19T07:52:51.929Z,4.50
2018-10-19T07:55:19.506Z,4.60
2018-10-19T07:57:48.000Z,5.00
2018-10-19T08:00:15.699Z,3.65
2018-10-19T08:02:43.425Z,3.40
2018-10-19T08:05:11.337Z,3.92
2018-10-19T08:07:38.939Z,3.65
2018-10-19T08:10:08.785Z,3.98
2018-10-19T08:12:36.407Z,3.85
2018-10-19T08:15:04.752Z,3.52
2018-10-19T08:17:32.461Z,4.12
2018-10-19T08:20:00.158Z,3.25
2018-10-19T08:22:29.002Z,3.25
2018-10-19T08:24:57.333Z,4.33
2018-10-19T08:27:27.356Z,3.20
2018-10-19T08:29:55.552Z,3.10
2018-10-19T08:32:23.474Z,2.83
2018-10-19T08:34:51.092Z,3.22
2018-10-19T08:37:18.825Z,2.30
2018-10-19T08:39:46.385Z,2.50
2018-10-19T08:42:13.929Z,3.70
2018-10-19T08:44:41.455Z,3.30
2018-10-19T08:47:09.035Z,4.10
2018-10-19T08:49:36.601Z,3.33
2018-10-19T08:52:04.279Z,2.98
2018-10-19T08:54:32.334Z,2.70
2018-10-19T08:56:59.891Z,2.62
2018-10-19T08:59:27.570Z,2.85
2018-10-19T09:01:55.160Z,3.40
2018-10-19T09:04:22.688Z,2.37
2018-10-19T09:06:50.235Z,2.77
2018-10-19T09:09:17.892Z,2.75
2018-10-19T09:11:45.597Z,3.02
2018-10-19T09:14:24.504Z,2.83
2018-10-19T09:16:52.101Z,2.70
2018-10-19T09:19:19.658Z,3.37
2018-10-19T09:21:47.226Z,2.90
2018-10-19T09:24:14.818Z,2.65
2018-10-19T09:26:43.528Z,2.25
2018-10-19T09:29:11.995Z,2.47
2018-10-19T09:31:39.500Z,2.77
2018-10-19T09:34:07.021Z,3.35
2018-10-19T09:36:34.813Z,2.52
2018-10-19T09:39:02.298Z,5.80
2018-10-19T09:41:29.918Z,3.20
2018-10-19T09:43:57.430Z,3.20
2018-10-19T09:46:25.052Z,8.03
2018-10-19T09:48:52.757Z,6.40
2018-10-19T09:51:20.373Z,8.15
2018-10-19T09:53:48.500Z,4.75
2018-10-19T09:56:16.208Z,9.20
2018-10-19T09:58:43.748Z,6.12
2018-10-19T10:01:29.691Z,5.08
2018-10-19T10:03:58.352Z,4.62
2018-10-19T10:06:26.912Z,3.65
2018-10-19T10:08:54.815Z,5.00
2018-10-19T10:11:22.405Z,4.80
2018-10-19T10:13:50.203Z,4.62
2018-10-19T10:16:17.990Z,3.80
2018-10-19T10:18:45.577Z,5.12
2018-10-19T10:21:13.160Z,6.20
2018-10-19T10:23:41.330Z,5.60
2018-10-19T10:26:10.382Z,5.50
2018-10-19T10:28:37.965Z,4.85
2018-10-19T10:31:06.013Z,4.70
2018-10-19T10:33:33.572Z,3.75
2018-10-19T10:36:01.676Z,3.72
2018-10-19T10:38:29.270Z,3.77
2018-10-19T10:40:56.782Z,3.70
2018-10-19T10:43:24.338Z,3.40
2018-10-19T10:45:51.902Z,3.40
2018-10-19T10:48:19.442Z,2.90
2018-10-19T10:50:47.529Z,2.67
2018-10-19T10:53:15.345Z,3.65
2018-10-19T10:55:42.917Z,2.90
2018-10-19T10:58:10.741Z,2.40
2018-10-19T11:00:38.257Z,2.90
2018-10-19T11:03:05.793Z,2.45
2018-10-19T11:05:33.309Z,3.22
2018-10-19T11:08:00.860Z,4.60
2018-10-19T11:10:28.423Z,4.00
2018-10-19T11:12:56.028Z,4.40
2018-10-19T11:15:23.526Z,4.65
2018-10-19T11:17:51.057Z,5.30
2018-10-19T11:20:18.635Z,5.08
2018-10-19T11:22:46.185Z,4.47
2018-10-19T11:25:14.337Z,4.45
2018-10-19T11:27:41.892Z,3.92
2018-10-19T11:30:09.604Z,7.00
2018-10-19T11:32:37.177Z,4.62
2018-10-19T11:35:04.947Z,4.45
2018-10-19T11:37:32.541Z,4.40
2018-10-19T11:40:11.448Z,4.37
2018-10-19T11:42:38.946Z,6.60
2018-10-19T11:45:06.640Z,5.08
2018-10-19T11:47:34.231Z,3.50
2018-10-19T11:50:01.819Z,4.85
2018-10-19T11:52:29.373Z,4.45
2018-10-19T11:54:56.900Z,5.00
2018-10-19T11:57:24.429Z,10.80
2018-10-19T11:59:51.979Z,5.05
2018-10-19T12:02:19.555Z,4.60
2018-10-19T12:04:47.104Z,5.80
2018-10-19T12:07:14.737Z,4.83
2018-10-19T12:09:42.224Z,5.50
2018-10-19T12:12:09.864Z,4.78
2018-10-19T12:14:37.356Z,5.53
2018-10-19T12:17:05.061Z,5.62
2018-10-19T12:19:32.528Z,6.35
2018-10-19T12:22:00.070Z,5.95
2018-10-19T12:24:27.659Z,5.33
2018-10-19T12:26:55.290Z,4.78
2018-10-19T12:29:22.851Z,4.12
2018-10-19T12:31:50.371Z,4.37
2018-10-19T12:34:17.946Z,4.70
2018-10-19T12:36:45.523Z,4.90
2018-10-19T12:39:13.080Z,4.40
2018-10-19T12:41:40.654Z,5.80
2018-10-19T12:44:08.265Z,5.10
2018-10-19T12:46:50.211Z,4.28
2018-10-19T12:49:20.109Z,4.33
2018-10-19T12:51:47.697Z,4.37
2018-10-19T12:54:15.567Z,3.92
2018-10-19T12:56:43.086Z,5.37
2018-10-19T12:59:10.593Z,4.53
2018-10-19T13:01:38.150Z,4.17
2018-10-19T13:04:05.795Z,4.27
2018-10-19T13:06:33.412Z,6.90
2018-10-19T13:09:01.091Z,5.37
2018-10-19T13:11:28.756Z,4.97
2018-10-19T13:13:56.418Z,7.20
2018-10-19T13:16:24.126Z,7.03
2018-10-19T13:18:52.492Z,8.80
2018-10-19T13:21:20.098Z,9.13
2018-10-19T13:23:47.690Z,9.73
2018-10-19T13:26:15.245Z,9.57
2018-10-19T13:28:42.824Z,9.57
2018-10-19T13:31:10.357Z,10.48
2018-10-19T13:33:37.922Z,11.15
2018-10-19T13:36:05.772Z,10.53
2018-10-19T13:38:33.273Z,11.18
2018-10-19T13:41:00.904Z,10.95
2018-10-19T13:43:28.496Z,11.28
2018-10-19T13:45:56.142Z,10.72
2018-10-19T13:48:23.853Z,10.32
2018-10-19T13:50:51.442Z,10.40
2018-10-19T13:53:19.065Z,11.05
2018-10-19T13:55:46.658Z,12.25
2018-10-19T13:58:14.350Z,11.15
2018-10-19T14:00:41.877Z,13.90
2018-10-19T14:03:09.462Z,29.63
2018-10-19T14:05:37.279Z,22.02
2018-10-19T14:08:04.790Z,13.20
2018-10-19T14:10:32.323Z,13.03
2018-10-19T14:13:00.464Z,14.85
2018-10-19T14:15:28.028Z,11.48
2018-10-19T14:17:55.565Z,12.07
2018-10-19T14:20:23.107Z,12.35
2018-10-19T14:22:50.692Z,14.93
2018-10-19T14:25:18.291Z,16.87
2018-10-19T14:27:46.088Z,13.95
2018-10-19T14:30:15.026Z,13.50
2018-10-19T14:32:43.907Z,13.28
2018-10-19T14:35:12.239Z,12.75
2018-10-19T14:37:40.882Z,12.78
2018-10-19T14:40:10.859Z,12.23
2018-10-19T14:42:38.935Z,15.88
2018-10-19T14:45:08.301Z,14.85
2018-10-19T14:47:36.841Z,14.15
2018-10-19T14:50:05.070Z,14.60
2018-10-19T14:52:33.018Z,13.45
2018-10-19T14:55:00.576Z,12.98
2018-10-19T14:57:28.082Z,14.50
2018-10-19T14:59:55.639Z,13.20
2018-10-19T15:02:23.217Z,12.88
2018-10-19T15:04:50.731Z,11.93
2018-10-19T15:07:18.348Z,14.00
2018-10-19T15:09:46.124Z,12.98
2018-10-19T15:12:13.591Z,15.25
2018-10-19T15:14:41.121Z,14.98
2018-10-19T15:17:08.677Z,13.85
2018-10-19T15:19:36.211Z,12.75
2018-10-19T15:22:03.803Z,15.23
2018-10-19T15:24:31.395Z,12.95
2018-10-19T15:26:58.903Z,24.57
2018-10-19T15:29:26.485Z,39.27
2018-10-19T15:31:54.616Z,24.87
2018-10-19T15:34:23.067Z,17.37
2018-10-19T15:36:50.593Z,13.62
2018-10-19T15:39:18.161Z,17.55
2018-10-19T15:41:45.763Z,15.13
2018-10-19T15:44:13.332Z,16.77
2018-10-19T15:46:41.056Z,12.93
2018-10-19T15:49:08.584Z,14.05
2018-10-19T15:51:36.107Z,16.42
2018-10-19T15:54:03.792Z,16.45
2018-10-19T15:56:31.513Z,23.98
2018-10-19T15:58:59.651Z,22.27
2018-10-19T16:01:27.214Z,26.15
2018-10-19T16:03:55.677Z,37.80
2018-10-19T16:06:23.235Z,18.90
2018-10-19T16:08:50.785Z,22.93
2018-10-19T16:11:18.418Z,17.95
2018-10-19T16:13:45.906Z,19.65
2018-10-19T16:16:13.929Z,19.95
2018-10-19T16:18:41.477Z,18.87
2018-10-19T16:21:09.158Z,15.08
2018-10-19T16:23:37.310Z,14.95
2018-10-19T16:26:04.982Z,18.70
2018-10-19T16:28:32.715Z,13.93
2018-10-19T16:31:00.198Z,19.42
2018-10-19T16:33:27.834Z,27.20
2018-10-19T16:35:55.346Z,28.77
2018-10-19T16:38:23.036Z,24.18
2018-10-19T16:40:50.756Z,21.30
2018-10-19T16:43:18.272Z,26.40
2018-10-19T16:45:45.967Z,16.95
2018-10-19T16:48:13.579Z,15.08
2018-10-19T16:50:41.091Z,15.00
2018-10-19T16:53:08.761Z,15.18
2018-10-19T16:55:36.223Z,15.20
2018-10-19T16:58:03.995Z,13.40
2018-10-19T17:00:31.663Z,17.02
2018-10-19T17:02:59.344Z,14.95
2018-10-19T17:05:26.803Z,15.63
2018-10-19T17:07:54.369Z,16.25
2018-10-19T17:10:21.962Z,19.45
2018-10-19T17:12:49.595Z,16.35
2018-10-19T17:15:17.284Z,16.60
2018-10-19T17:17:44.779Z,21.68
2018-10-19T17:20:12.380Z,19.17
2018-10-19T17:22:39.939Z,17.32
2018-10-19T17:25:09.443Z,19.07
2018-10-19T17:27:37.036Z,17.40
2018-10-19T17:30:06.786Z,19.77
2018-10-19T17:32:34.342Z,14.98
2018-10-19T17:35:01.915Z,18.65
2018-10-19T17:37:29.535Z,26.15
2018-10-19T17:39:57.039Z,23.55
2018-10-19T17:42:24.606Z,27.70
2018-10-19T17:44:52.155Z,26.52
2018-10-19T17:47:19.776Z,22.58
2018-10-19T17:49:47.332Z,20.40
2018-10-19T17:52:14.908Z,18.45
2018-10-19T17:54:42.471Z,20.88
2018-10-19T17:57:10.100Z,21.48
2018-10-19T17:59:37.654Z,21.27
2018-10-19T18:02:05.528Z,24.85
2018-10-19T18:04:33.179Z,22.98
2018-10-19T18:07:00.736Z,20.92
2018-10-19T18:09:29.094Z,19.70
2018-10-19T18:11:56.635Z,18.90
2018-10-19T18:14:24.232Z,18.17
2018-10-19T18:16:51.796Z,20.20
2018-10-19T18:19:19.512Z,20.50
2018-10-19T18:21:47.322Z,19.07
2018-10-19T18:24:14.705Z,20.45
2018-10-19T18:26:42.298Z,21.07
2018-10-19T18:29:10.314Z,21.25
2018-10-19T18:31:37.912Z,23.57
2018-10-19T18:34:05.506Z,20.48
2018-10-19T18:36:33.075Z,23.25
2018-10-19T18:39:00.620Z,20.02
2018-10-19T18:41:28.196Z,19.80
2018-10-19T18:43:55.849Z,20.15
2018-10-19T18:46:23.443Z,20.05
2018-10-19T18:48:51.015Z,19.45
2018-10-19T18:51:18.665Z,19.75
2018-10-19T18:53:46.243Z,20.65
2018-10-19T18:56:13.946Z,18.82
2018-10-19T18:58:41.529Z,21.05
2018-10-19T19:01:09.087Z,19.65
2018-10-19T19:03:36.719Z,23.70
2018-10-19T19:06:04.502Z,21.15
2018-10-19T19:08:32.136Z,23.87
2018-10-19T19:10:59.674Z,18.87
2018-10-19T19:13:28.619Z,17.65
2018-10-19T19:15:56.571Z,22.07
2018-10-19T19:18:24.165Z,18.10
2018-10-19T19:20:51.774Z,21.10
2018-10-19T19:23:19.404Z,22.52
2018-10-19T19:25:52.702Z,21.48
2018-10-19T19:28:20.254Z,22.32
2018-10-19T19:30:47.828Z,20.23
2018-10-19T19:33:21.075Z,22.30
2018-10-19T19:35:48.750Z,19.75
2018-10-19T19:38:16.391Z,20.85
2018-10-19T19:40:49.719Z,21.55
2018-10-19T19:43:17.306Z,19.80
2018-10-19T19:45:44.893Z,22.55
2018-10-19T19:48:18.037Z,21.02
2018-10-19T19:50:45.611Z,20.97
2018-10-19T19:53:13.269Z,22.98
2018-10-19T19:55:40.884Z,20.10
2018-10-19T19:58:08.492Z,19.75
2018-10-19T20:00:36.020Z,18.92
2018-10-19T20:03:03.719Z,22.70
2018-10-19T20:05:31.370Z,21.42
2018-10-19T20:07:59.349Z,20.43
2018-10-19T20:10:29.200Z,19.82
2018-10-19T20:12:57.750Z,21.40
2018-10-19T20:15:26.019Z,20.12
2018-10-19T20:17:53.644Z,23.47
2018-10-19T20:20:21.231Z,21.52
2018-10-19T20:22:48.808Z,21.33
2018-10-19T20:25:17.073Z,18.90
2018-10-19T20:27:44.632Z,20.40
2018-10-19T20:30:13.680Z,18.42
2018-10-19T20:32:41.398Z,18.52
2018-10-19T20:35:10.314Z,20.05
2018-10-19T20:37:38.721Z,20.60
2018-10-19T20:40:07.041Z,20.08
2018-10-19T20:42:34.670Z,19.30
2018-10-19T20:45:02.514Z,18.05
2018-10-19T20:47:30.141Z,17.92
2018-10-19T20:49:57.828Z,20.50
2018-10-19T20:52:25.399Z,18.00
2018-10-19T20:54:54.863Z,19.23
2018-10-19T20:57:22.487Z,19.27
2018-10-19T20:59:50.024Z,19.92
2018-10-19T21:02:17.650Z,20.20
2018-10-19T21:04:45.215Z,18.60
2018-10-19T21:07:12.875Z,17.70
2018-10-19T21:09:40.815Z,18.10
2018-10-19T21:12:09.217Z,17.87
2018-10-19T21:14:38.668Z,16.85
2018-10-19T21:17:06.766Z,18.48
2018-10-19T21:19:35.393Z,17.50
2018-10-19T21:22:03.340Z,17.75
2018-10-19T21:24:31.117Z,20.68
2018-10-19T21:26:59.180Z,18.87
2018-10-19T21:29:26.795Z,19.07
2018-10-19T21:31:56.080Z,18.82
2018-10-19T21:34:23.644Z,16.75
2018-10-19T21:36:53.286Z,19.37
2018-10-19T21:39:20.873Z,19.25
2018-10-19T21:41:48.449Z,17.32
2018-10-19T21:44:16.078Z,18.35
2018-10-19T21:46:44.633Z,19.30
2018-10-19T21:49:12.196Z,17.32
2018-10-19T21:51:40.959Z,17.40
2018-10-19T21:54:08.545Z,17.65
2018-10-19T21:56:36.330Z,17.90
2018-10-19T21:59:05.408Z,17.07
2018-10-19T22:01:34.159Z,20.55
2018-10-19T22:04:02.661Z,18.48
2018-10-19T22:06:30.217Z,18.02
2018-10-19T22:08:58.473Z,18.60
2018-10-19T22:11:26.094Z,18.42
2018-10-19T22:13:54.108Z,18.48
2018-10-19T22:16:21.867Z,21.20
2018-10-19T22:18:49.506Z,19.50
2018-10-19T22:21:17.063Z,17.27
2018-10-19T22:23:44.599Z,18.27
2018-10-19T22:26:12.271Z,18.07
2018-10-19T22:28:39.826Z,19.17
2018-10-19T22:31:11.434Z,17.05
2018-10-19T22:33:38.925Z,18.98
2018-10-19T22:36:06.496Z,18.92
2018-10-19T22:38:34.727Z,18.75
2018-10-19T22:41:03.494Z,19.30
2018-10-19T22:43:31.013Z,18.95
2018-10-19T22:45:58.572Z,21.00
2018-10-19T22:48:26.121Z,20.17
2018-10-19T22:50:53.648Z,21.68
2018-10-19T22:53:22.196Z,19.20
2018-10-19T22:55:49.852Z,18.75
2018-10-19T22:58:18.380Z,19.32
2018-10-19T23:00:45.982Z,18.17
2018-10-19T23:03:13.528Z,19.07
2018-10-19T23:05:41.084Z,20.95
2018-10-19T23:08:08.647Z,21.00
2018-10-19T23:10:37.157Z,21.15
2018-10-19T23:13:04.796Z,23.73
2018-10-19T23:15:32.365Z,22.55
2018-10-19T23:17:59.881Z,22.27
2018-10-19T23:20:27.907Z,21.42
2018-10-19T23:22:55.557Z,23.73
2018-10-19T23:25:23.153Z,22.05
2018-10-19T23:27:50.746Z,22.27
2018-10-19T23:30:18.367Z,20.97
2018-10-19T23:32:45.956Z,21.65
2018-10-19T23:35:13.612Z,21.90
2018-10-19T23:37:41.807Z,22.93
2018-10-19T23:40:10.071Z,22.25
2018-10-19T23:42:39.001Z,22.40
2018-10-19T23:45:07.588Z,23.85
2018-10-19T23:47:35.207Z,20.80
2018-10-19T23:50:02.870Z,21.70
2018-10-19T23:52:30.408Z,23.38
2018-10-19T23:54:58.292Z,19.50
2018-10-19T23:57:26.672Z,21.20
2018-10-19T23:59:54.954Z,23.25
